Time;durP1;ratioP1;P1;durP2;ratioP2;P2;SDS_P1;SDS_P2;PMS_P1;PMS_P2;Temp;Humidity;BMP_temperature;BMP_pressure;BME280_temperature;BME280_humidity;BME280_pressure;Samples;Min_cycle;Max_cycle;Signal;HPM_P1;HPM_P2
2022/08/04 00:01:52;;;;;;;8.02;3.92;;;19.40;99.90;;;;;;4990673;28;20650;-74
2022/08/04 00:04:30;;;;;;;9.90;3.63;;;19.40;99.90;;;;;;4990475;28;20019;-75
2022/08/04 00:07:17;;;;;;;8.55;4.15;;;19.40;99.90;;;;;;4989409;28;20031;-75
2022/08/04 00:09:54;;;;;;;11.10;3.85;;;19.40;99.90;;;;;;4985083;28;20549;-74
2022/08/04 00:12:24;;;;;;;8.20;3.88;;;19.40;99.90;;;;;;4984288;28;20030;-74
2022/08/04 00:14:52;;;;;;;13.15;5.07;;;19.50;99.90;;;;;;4990417;28;20022;-75
2022/08/04 00:17:27;;;;;;;8.50;4.45;;;19.40;99.90;;;;;;4989329;28;20436;-74
2022/08/04 00:20:02;;;;;;;9.15;4.07;;;19.50;99.90;;;;;;4989929;28;20025;-74
2022/08/04 00:22:30;;;;;;;7.70;4.15;;;19.50;99.90;;;;;;4982110;28;20014;-75
2022/08/04 00:24:56;;;;;;;12.07;4.43;;;19.50;99.90;;;;;;4989585;28;20022;-75
2022/08/04 00:27:23;;;;;;;8.55;4.13;;;19.50;99.90;;;;;;4987322;28;20129;-75
2022/08/04 00:29:49;;;;;;;10.75;4.90;;;19.50;99.90;;;;;;4994526;28;20037;-75
2022/08/04 00:32:17;;;;;;;13.23;4.68;;;19.50;99.90;;;;;;4989358;28;20498;-75
2022/08/04 00:34:43;;;;;;;11.45;4.65;;;19.50;99.90;;;;;;4989808;28;20034;-75
2022/08/04 00:37:09;;;;;;;9.65;5.22;;;19.40;99.90;;;;;;4989679;28;20023;-75
2022/08/04 00:39:36;;;;;;;9.25;4.70;;;19.50;99.90;;;;;;4990126;28;20067;-75
2022/08/04 00:42:33;;;;;;;13.85;5.10;;;19.50;99.90;;;;;;4989801;28;20031;-75
2022/08/04 00:45:36;;;;;;;11.05;6.03;;;19.50;99.90;;;;;;4983195;28;20062;-75
2022/08/04 00:48:07;;;;;;;9.38;5.63;;;19.50;99.90;;;;;;4985989;28;20022;-75
2022/08/04 00:50:58;;;;;;;10.60;5.43;;;19.50;99.90;;;;;;4989041;28;20027;-75
2022/08/04 00:53:36;;;;;;;10.10;5.82;;;19.50;99.90;;;;;;4989382;28;20050;-74
2022/08/04 00:56:21;;;;;;;10.27;5.63;;;19.50;99.90;;;;;;4982838;28;20488;-75
2022/08/04 00:58:57;;;;;;;7.25;5.60;;;19.50;99.90;;;;;;4984071;28;20022;-74
2022/08/04 01:02:20;;;;;;;13.05;5.40;;;19.60;99.90;;;;;;4988084;28;20022;-74
2022/08/04 01:04:56;;;;;;;13.57;5.97;;;19.50;99.90;;;;;;5009738;28;20203;-74
2022/08/04 01:07:39;;;;;;;8.73;5.20;;;19.50;99.90;;;;;;5012613;28;20040;-74
2022/08/04 01:10:32;;;;;;;13.15;5.85;;;19.60;99.90;;;;;;4999690;28;20061;-74
2022/08/04 01:13:13;;;;;;;10.77;6.40;;;19.60;99.90;;;;;;4989384;28;20037;-75
2022/08/04 01:15:53;;;;;;;12.30;6.13;;;19.60;99.90;;;;;;4989323;28;20029;-74
2022/08/04 01:18:39;;;;;;;12.90;5.82;;;19.50;99.90;;;;;;4988234;28;20029;-75
2022/08/04 01:21:26;;;;;;;11.80;6.25;;;19.50;99.90;;;;;;4987872;28;20117;-75
2022/08/04 01:24:11;;;;;;;10.35;6.20;;;19.60;99.90;;;;;;4989464;28;20023;-74
2022/08/04 01:26:45;;;;;;;16.90;6.82;;;19.50;99.90;;;;;;4988831;28;20069;-74
2022/08/04 01:29:14;;;;;;;19.75;8.77;;;19.50;99.90;;;;;;4989177;28;20026;-75
2022/08/04 01:31:55;;;;;;;18.10;9.43;;;19.60;99.90;;;;;;5018268;28;20034;-75
2022/08/04 01:34:21;;;;;;;;;;;19.60;99.90;;;;;;4989264;28;20018;-74
2022/08/04 01:36:59;;;;;;;13.82;8.32;;;19.50;99.90;;;;;;4988327;28;20372;-75
2022/08/04 01:39:39;;;;;;;20.30;10.52;;;19.50;99.90;;;;;;4988050;28;20026;-75
2022/08/04 01:42:05;;;;;;;17.73;9.73;;;19.50;99.90;;;;;;4987585;23;20576;-75
2022/08/04 01:44:34;;;;;;;18.55;9.73;;;19.50;99.90;;;;;;4968667;28;20399;-76
2022/08/04 01:47:00;;;;;;;18.55;9.38;;;19.50;99.90;;;;;;4969025;28;20019;-76
2022/08/04 01:49:29;;;;;;;18.85;10.18;;;19.40;99.90;;;;;;4962177;28;20029;-75
2022/08/04 01:51:55;;;;;;;24.90;10.48;;;19.40;99.90;;;;;;4959188;28;20027;-75
2022/08/04 01:54:22;;;;;;;19.55;9.52;;;19.40;99.90;;;;;;4949423;28;20035;-75
2022/08/04 01:56:49;;;;;;;21.08;10.35;;;19.40;99.90;;;;;;4948673;28;20033;-75
2022/08/04 01:59:18;;;;;;;23.05;10.05;;;19.40;99.90;;;;;;4950520;28;20030;-75
2022/08/04 02:01:44;;;;;;;22.17;10.25;;;19.40;99.90;;;;;;4950406;28;20027;-76
2022/08/04 02:04:15;;;;;;;20.15;10.48;;;19.40;99.90;;;;;;4953296;28;20024;-75
2022/08/04 02:07:26;;;;;;;18.02;9.55;;;19.40;99.90;;;;;;4956641;28;20023;-75
2022/08/04 02:10:06;;;;;;;24.20;10.43;;;19.40;99.90;;;;;;4970689;28;20035;-75
2022/08/04 02:13:20;;;;;;;22.77;10.70;;;19.40;99.90;;;;;;4953713;28;20054;-75
2022/08/04 02:15:57;;;;;;;27.65;9.70;;;19.40;99.90;;;;;;4942769;28;20059;-75
2022/08/04 02:19:01;;;;;;;24.58;9.55;;;19.40;99.90;;;;;;4952460;28;20015;-76
2022/08/04 02:21:28;;;;;;;25.33;10.07;;;19.40;99.90;;;;;;4953523;28;20023;-75
2022/08/04 02:24:05;;;;;;;22.90;9.38;;;19.30;99.90;;;;;;4952620;28;20023;-75
2022/08/04 02:26:33;;;;;;;18.02;8.60;;;19.30;99.90;;;;;;4953713;28;20412;-75
2022/08/04 02:29:33;;;;;;;17.23;8.65;;;19.30;99.90;;;;;;4953150;28;20051;-75
2022/08/04 02:32:10;;;;;;;15.93;6.93;;;19.30;99.90;;;;;;4959033;28;20093;-76
2022/08/04 02:34:46;;;;;;;14.32;6.28;;;19.30;99.90;;;;;;4953031;28;20023;-75
2022/08/04 02:37:17;;;;;;;11.48;5.90;;;19.20;99.90;;;;;;4956393;28;20033;-75
2022/08/04 02:39:44;;;;;;;11.57;5.00;;;19.20;99.90;;;;;;4953255;28;20077;-75
2022/08/04 02:42:11;;;;;;;13.10;4.28;;;19.20;99.90;;;;;;4953203;28;20039;-75
2022/08/04 02:44:38;;;;;;;10.70;3.60;;;19.20;99.90;;;;;;4952240;28;20562;-76
2022/08/04 02:47:06;;;;;;;6.78;3.22;;;19.20;99.90;;;;;;4952921;28;20038;-75
2022/08/04 02:49:35;;;;;;;8.05;3.55;;;19.20;99.90;;;;;;4953168;28;20038;-75
2022/08/04 02:52:01;;;;;;;6.75;3.28;;;19.20;99.90;;;;;;4952810;28;20089;-75
2022/08/04 02:54:36;;;;;;;5.32;3.03;;;19.20;99.90;;;;;;4953338;28;20019;-75
2022/08/04 02:57:06;;;;;;;4.30;2.55;;;19.10;99.90;;;;;;4952888;28;20042;-75
2022/08/04 03:00:03;;;;;;;9.43;3.13;;;18.90;99.90;;;;;;4953010;28;20062;-75
2022/08/04 03:02:54;;;;;;;6.85;3.08;;;18.90;99.90;;;;;;4953087;28;20023;-75
2022/08/04 03:05:25;;;;;;;5.83;3.13;;;18.70;99.90;;;;;;4953044;28;20031;-75
2022/08/04 03:07:56;;;;;;;8.38;3.15;;;18.60;99.90;;;;;;4954917;28;20626;-75
2022/08/04 03:11:01;;;;;;;5.95;3.22;;;18.50;99.90;;;;;;4959730;28;20054;-75
2022/08/04 03:13:40;;;;;;;5.50;2.75;;;18.50;99.90;;;;;;4936982;28;20028;-75
2022/08/04 03:16:43;;;;;;;8.10;2.72;;;18.50;99.90;;;;;;4952787;28;20019;-75
2022/08/04 03:19:09;;;;;;;7.03;3.10;;;18.50;99.90;;;;;;4954970;28;20035;-75
2022/08/04 03:21:53;;;;;;;3.00;2.40;;;18.50;99.90;;;;;;4952170;28;20027;-75
2022/08/04 03:24:55;;;;;;;4.90;2.63;;;18.60;99.90;;;;;;4952526;28;20023;-75
2022/08/04 03:27:20;;;;;;;4.35;2.50;;;18.60;99.90;;;;;;4952229;28;20022;-75
2022/08/04 03:30:06;;;;;;;5.38;3.17;;;18.60;99.90;;;;;;4952404;28;20119;-75
2022/08/04 03:32:53;;;;;;;6.20;2.55;;;18.60;99.90;;;;;;4953020;28;20066;-75
2022/08/04 03:35:39;;;;;;;4.03;2.63;;;18.50;99.90;;;;;;4952460;28;20034;-75
2022/08/04 03:38:23;;;;;;;6.65;2.55;;;18.50;99.90;;;;;;4952256;28;20112;-75
2022/08/04 03:40:55;;;;;;;5.07;2.78;;;18.50;99.90;;;;;;4952266;28;20038;-75
2022/08/04 03:43:49;;;;;;;3.42;2.55;;;18.50;99.90;;;;;;4957736;28;20029;-77
2022/08/04 03:46:48;;;;;;;3.67;2.15;;;18.50;99.90;;;;;;4951732;28;20110;-76
2022/08/04 03:49:32;;;;;;;4.43;2.38;;;18.60;99.90;;;;;;4951468;28;20098;-76
2022/08/04 03:55:29;;;;;;;3.67;2.40;;;18.60;99.90;;;;;;4951258;28;20037;-77
2022/08/04 03:58:01;;;;;;;5.40;3.00;;;18.60;99.90;;;;;;4956884;28;20427;-76
2022/08/04 04:00:38;;;;;;;3.45;2.58;;;18.60;99.90;;;;;;4951643;28;20023;-76
2022/08/04 04:03:29;;;;;;;6.97;2.65;;;18.60;99.90;;;;;;4958290;28;20034;-76
2022/08/04 04:06:19;;;;;;;4.65;2.45;;;18.60;99.90;;;;;;4953593;28;20035;-76
2022/08/04 04:08:49;;;;;;;4.32;3.03;;;18.60;99.90;;;;;;4957031;28;20024;-76
2022/08/04 04:11:33;;;;;;;4.72;2.70;;;18.60;99.90;;;;;;4957512;28;20415;-76
2022/08/04 04:14:09;;;;;;;5.32;2.67;;;18.50;99.90;;;;;;4958360;28;20023;-77
2022/08/04 04:16:35;;;;;;;6.20;2.40;;;18.60;99.90;;;;;;4951796;28;20027;-76
2022/08/04 04:19:16;;;;;;;4.40;2.67;;;18.60;99.90;;;;;;4951828;28;20149;-77
2022/08/04 04:22:16;;;;;;;4.80;2.22;;;18.60;99.90;;;;;;4951630;28;20621;-77
2022/08/04 04:24:54;;;;;;;6.07;1.90;;;18.60;99.90;;;;;;4951629;28;20122;-76
2022/08/04 04:27:41;;;;;;;5.35;1.73;;;18.50;99.90;;;;;;4951331;28;20144;-76
2022/08/04 04:30:20;;;;;;;3.63;1.88;;;18.50;99.90;;;;;;4951807;28;20024;-77
2022/08/04 04:33:07;;;;;;;6.82;1.75;;;18.50;99.90;;;;;;4951753;28;20050;-77
2022/08/04 04:35:33;;;;;;;5.20;1.58;;;18.50;99.90;;;;;;4952127;28;20056;-76
2022/08/04 04:38:21;;;;;;;3.72;1.55;;;18.40;99.90;;;;;;4955509;28;20032;-76
2022/08/04 04:40:50;;;;;;;3.83;1.60;;;18.30;99.90;;;;;;4951251;28;20033;-77
2022/08/04 04:43:21;;;;;;;4.78;1.70;;;18.20;99.90;;;;;;4950770;28;20018;-76
2022/08/04 04:46:12;;;;;;;3.83;1.70;;;18.10;99.90;;;;;;4950420;28;20027;-77
2022/08/04 04:48:57;;;;;;;2.95;1.33;;;18.00;99.90;;;;;;4950951;28;20027;-77
2022/08/04 04:51:33;;;;;;;5.90;1.23;;;17.90;99.90;;;;;;4950699;28;20035;-76
2022/08/04 04:54:19;;;;;;;6.15;1.63;;;17.90;99.90;;;;;;4951056;28;20026;-76
2022/08/04 04:56:52;;;;;;;2.95;1.98;;;17.80;99.90;;;;;;4951023;28;20027;-76
2022/08/04 04:59:23;;;;;;;4.60;1.30;;;17.70;99.90;;;;;;4951296;28;20023;-77
2022/08/04 05:02:06;;;;;;;3.50;1.40;;;17.70;99.90;;;;;;4951254;28;20384;-77
2022/08/04 05:04:57;;;;;;;3.50;1.58;;;17.60;99.90;;;;;;4951121;28;20072;-77
2022/08/04 05:07:45;;;;;;;3.65;1.30;;;17.70;99.90;;;;;;4953931;28;20035;-76
2022/08/04 05:10:38;;;;;;;3.05;1.50;;;17.80;99.90;;;;;;4951501;28;20046;-77
2022/08/04 05:13:36;;;;;;;2.88;1.35;;;17.90;99.90;;;;;;4957820;28;20042;-76
2022/08/04 05:16:26;;;;;;;3.05;1.33;;;17.90;99.90;;;;;;4950959;28;20023;-77
2022/08/04 05:19:11;;;;;;;4.50;1.90;;;18.00;99.90;;;;;;4951145;28;20104;-77
2022/08/04 05:21:49;;;;;;;4.78;1.45;;;18.10;99.90;;;;;;4967048;28;20035;-76
2022/08/04 05:24:18;;;;;;;4.88;1.30;;;18.20;99.90;;;;;;4950599;28;20027;-76
2022/08/04 05:26:49;;;;;;;3.22;1.48;;;18.30;99.90;;;;;;4950874;28;20074;-76
2022/08/04 05:29:36;;;;;;;3.92;1.60;;;18.40;99.90;;;;;;4950678;28;20027;-77
2022/08/04 05:32:06;;;;;;;6.13;1.70;;;18.60;99.90;;;;;;4950414;28;20023;-77
2022/08/04 05:34:38;;;;;;;1.52;1.25;;;18.70;99.90;;;;;;4950607;28;20089;-77
2022/08/04 05:37:10;;;;;;;3.42;1.80;;;18.70;99.90;;;;;;4951370;28;20023;-76
2022/08/04 05:39:43;;;;;;;3.85;1.55;;;18.80;99.90;;;;;;4949493;28;20050;-77
2022/08/04 05:42:10;;;;;;;2.95;1.45;;;18.80;99.90;;;;;;4957042;28;20077;-77
2022/08/04 05:44:37;;;;;;;4.75;1.58;;;18.80;99.90;;;;;;4950620;28;20511;-76
2022/08/04 05:47:05;;;;;;;4.38;1.55;;;18.80;99.90;;;;;;4950480;28;20391;-77
2022/08/04 05:49:33;;;;;;;3.38;1.40;;;18.80;99.90;;;;;;4950418;28;20027;-77
2022/08/04 05:52:02;;;;;;;1.73;1.50;;;18.80;99.90;;;;;;4950252;28;20431;-77
2022/08/04 05:54:30;;;;;;;7.05;1.80;;;18.70;99.90;;;;;;4950588;28;20566;-77
2022/08/04 05:56:57;;;;;;;5.13;1.50;;;18.70;99.90;;;;;;4950154;28;20035;-77
2022/08/04 05:59:24;;;;;;;2.53;1.70;;;18.70;99.90;;;;;;4950049;28;20023;-77
2022/08/04 06:01:51;;;;;;;3.05;1.13;;;18.60;99.90;;;;;;4950732;28;20085;-76
2022/08/04 06:04:20;;;;;;;3.90;1.05;;;18.60;99.90;;;;;;4950545;28;20080;-76
2022/08/04 06:06:47;;;;;;;3.08;1.20;;;18.50;99.90;;;;;;4950702;28;20077;-76
2022/08/04 06:09:13;;;;;;;4.45;1.40;;;18.40;99.90;;;;;;4950143;28;20475;-77
2022/08/04 06:11:41;;;;;;;4.65;1.88;;;18.30;99.90;;;;;;4964839;28;20047;-77
2022/08/04 06:14:10;;;;;;;3.08;1.33;;;18.20;99.90;;;;;;4967497;28;20027;-77
2022/08/04 06:16:41;;;;;;;7.45;1.60;;;18.20;99.90;;;;;;4966906;28;20031;-77
2022/08/04 06:19:09;;;;;;;1.33;1.08;;;18.20;99.90;;;;;;4951256;28;20473;-78
2022/08/04 06:21:39;;;;;;;3.35;1.08;;;18.30;99.90;;;;;;4948665;28;20028;-77
2022/08/04 06:24:09;;;;;;;2.47;1.38;;;18.30;99.90;;;;;;4951959;28;20030;-77
2022/08/04 06:26:36;;;;;;;3.00;1.88;;;18.30;99.90;;;;;;4959296;28;20023;-77
2022/08/04 06:29:03;;;;;;;6.47;1.52;;;18.40;99.90;;;;;;4954138;28;20689;-77
2022/08/04 06:31:56;;;;;;;3.25;1.27;;;18.40;99.90;;;;;;4951488;28;20134;-77
2022/08/04 06:34:24;;;;;;;3.88;1.10;;;18.50;99.90;;;;;;4950505;28;20031;-77
2022/08/04 06:36:51;;;;;;;2.85;1.10;;;18.50;99.90;;;;;;4958389;28;20538;-77
2022/08/04 06:39:18;;;;;;;4.32;1.10;;;18.70;99.90;;;;;;4954329;28;20027;-77
2022/08/04 06:41:44;;;;;;;4.03;1.25;;;18.70;99.90;;;;;;4955619;28;20038;-77
2022/08/04 06:44:11;;;;;;;2.92;1.10;;;18.70;99.90;;;;;;4950194;28;20030;-77
2022/08/04 06:46:40;;;;;;;4.40;0.93;;;18.80;99.90;;;;;;4955398;28;20023;-77
2022/08/04 06:49:06;;;;;;;2.67;0.85;;;18.80;99.90;;;;;;4955476;28;20024;-78
2022/08/04 06:51:35;;;;;;;6.95;1.08;;;18.80;99.90;;;;;;4957514;28;20063;-77
2022/08/04 06:54:01;;;;;;;3.17;1.00;;;18.60;99.90;;;;;;4953132;28;20102;-77
2022/08/04 06:56:29;;;;;;;3.00;0.90;;;18.60;99.90;;;;;;4953283;28;20031;-77
2022/08/04 06:58:58;;;;;;;3.83;1.05;;;18.60;99.90;;;;;;4953077;28;20050;-77
2022/08/04 07:01:26;;;;;;;2.83;0.90;;;18.50;99.90;;;;;;4954513;28;20042;-77
2022/08/04 07:03:52;;;;;;;2.03;0.63;;;18.60;99.90;;;;;;4960256;28;20019;-77
2022/08/04 07:06:21;;;;;;;4.32;1.15;;;18.60;99.90;;;;;;4961390;28;20361;-77
2022/08/04 07:08:48;;;;;;;3.30;1.17;;;18.70;99.90;;;;;;4959997;28;20480;-77
2022/08/04 07:11:14;;;;;;;3.50;0.90;;;18.70;99.90;;;;;;4965914;28;20043;-77
2022/08/04 07:13:42;;;;;;;3.00;1.02;;;18.70;99.90;;;;;;4955221;28;20482;-77
2022/08/04 07:16:12;;;;;;;3.97;0.73;;;18.70;99.90;;;;;;4952664;28;20019;-78
2022/08/04 07:18:37;;;;;;;4.05;0.95;;;18.70;99.90;;;;;;4952151;28;20023;-77
2022/08/04 07:21:03;;;;;;;4.93;0.95;;;18.70;99.90;;;;;;4952649;28;20157;-77
2022/08/04 07:23:30;;;;;;;4.07;1.00;;;18.70;99.90;;;;;;4953162;28;20066;-77
2022/08/04 07:25:57;;;;;;;5.35;1.23;;;18.80;99.90;;;;;;4950778;28;20015;-77
2022/08/04 07:28:27;;;;;;;4.88;1.02;;;18.80;99.90;;;;;;4953761;28;20027;-77
2022/08/04 07:30:55;;;;;;;8.70;1.20;;;18.70;99.90;;;;;;4957442;28;20034;-77
2022/08/04 07:33:22;;;;;;;7.95;0.90;;;18.80;99.90;;;;;;4952233;28;20642;-77
2022/08/04 07:35:51;;;;;;;6.20;0.90;;;18.90;99.90;;;;;;4964319;28;20034;-77
2022/08/04 07:38:16;;;;;;;4.00;1.50;;;18.90;99.90;;;;;;4952139;28;20031;-77
2022/08/04 07:40:43;;;;;;;3.92;0.90;;;18.90;99.90;;;;;;4951778;28;20039;-77
2022/08/04 07:43:09;;;;;;;4.75;0.65;;;18.90;99.90;;;;;;4951472;28;20035;-76
2022/08/04 07:45:35;;;;;;;4.93;0.98;;;19.00;99.90;;;;;;4950534;28;20031;-77
2022/08/04 07:48:06;;;;;;;4.72;1.08;;;19.00;99.90;;;;;;4951007;28;20354;-77
2022/08/04 07:50:32;;;;;;;3.03;0.80;;;19.00;99.90;;;;;;4966442;28;20029;-77
2022/08/04 07:52:59;;;;;;;4.25;1.00;;;19.00;99.90;;;;;;4964406;28;20091;-76
2022/08/04 07:55:26;;;;;;;4.18;0.82;;;19.10;99.90;;;;;;4958979;28;20019;-77
2022/08/04 07:57:52;;;;;;;3.08;0.77;;;19.10;99.90;;;;;;4952368;28;20031;-77
2022/08/04 08:00:17;;;;;;;2.30;0.82;;;19.10;99.60;;;;;;4973956;28;20027;-76
2022/08/04 08:02:48;;;;;;;4.15;1.40;;;19.10;99.90;;;;;;4959409;28;20042;-76
2022/08/04 08:05:18;;;;;;;2.08;0.85;;;19.20;99.90;;;;;;4960339;28;20440;-77
2022/08/04 08:07:50;;;;;;;1.67;0.50;;;19.20;98.90;;;;;;4957717;28;20032;-77
2022/08/04 08:10:16;;;;;;;3.25;0.98;;;19.20;99.90;;;;;;4968771;28;20035;-76
2022/08/04 08:12:42;;;;;;;3.88;0.85;;;19.30;96.80;;;;;;4978022;28;20063;-76
2022/08/04 08:15:11;;;;;;;2.65;0.60;;;19.30;99.90;;;;;;4960198;28;20028;-76
2022/08/04 08:17:38;;;;;;;1.85;1.00;;;19.40;97.70;;;;;;4958549;28;20054;-79
2022/08/04 08:20:06;;;;;;;6.65;1.10;;;19.50;98.00;;;;;;4952103;28;20045;-78
2022/08/04 08:22:32;;;;;;;3.58;0.93;;;19.60;92.40;;;;;;4963567;28;20487;-76
2022/08/04 08:24:58;;;;;;;3.05;1.00;;;19.70;95.30;;;;;;4953621;28;20023;-76
2022/08/04 08:27:25;;;;;;;3.80;0.60;;;19.70;96.90;;;;;;4962411;28;20031;-76
2022/08/04 08:29:51;;;;;;;3.08;0.88;;;19.90;91.10;;;;;;4953319;28;20077;-76
2022/08/04 08:32:17;;;;;;;2.13;0.65;;;19.90;87.10;;;;;;4963311;28;20039;-76
2022/08/04 08:34:44;;;;;;;3.47;1.25;;;20.00;82.40;;;;;;4951745;28;20027;-77
2022/08/04 08:37:55;;;;;;;1.90;0.65;;;20.00;83.00;;;;;;4957266;28;20019;-76
2022/08/04 08:40:46;;;;;;;2.97;0.80;;;20.10;90.00;;;;;;4963209;28;20039;-77
2022/08/04 08:43:38;;;;;;;1.27;0.52;;;20.30;78.20;;;;;;4963943;28;20024;-76
2022/08/04 08:46:36;;;;;;;1.00;0.40;;;20.60;77.80;;;;;;4963847;28;20118;-76
2022/08/04 08:49:21;;;;;;;4.40;0.63;;;20.90;79.40;;;;;;4955516;28;20488;-78
2022/08/04 08:52:16;;;;;;;2.22;0.60;;;21.30;71.90;;;;;;4951071;28;20031;-76
2022/08/04 08:55:02;;;;;;;1.40;0.60;;;22.10;67.40;;;;;;4951204;28;20032;-76
2022/08/04 08:57:40;;;;;;;2.67;0.55;;;22.90;65.00;;;;;;4950522;28;20027;-78
2022/08/04 09:00:17;;;;;;;0.90;0.43;;;23.80;59.20;;;;;;4960201;28;20487;-79
2022/08/04 09:02:57;;;;;;;1.52;0.38;;;24.50;55.60;;;;;;4958680;28;20079;-76
2022/08/04 09:05:47;;;;;;;3.70;0.40;;;25.00;51.50;;;;;;4952890;28;20134;-77
2022/08/04 09:08:35;;;;;;;1.48;0.40;;;25.40;52.00;;;;;;4960629;28;20034;-76
2022/08/04 09:11:19;;;;;;;2.42;0.40;;;25.70;48.80;;;;;;4984276;28;20039;-77
2022/08/04 09:14:04;;;;;;;3.30;0.30;;;26.00;49.10;;;;;;4966609;28;20022;-76
2022/08/04 09:16:44;;;;;;;0.45;0.28;;;26.60;49.00;;;;;;4949045;28;20034;-78
2022/08/04 09:19:32;;;;;;;1.13;0.40;;;27.70;46.80;;;;;;4948133;28;20027;-78
2022/08/04 09:22:07;;;;;;;1.75;0.30;;;28.00;46.10;;;;;;4948538;28;20019;-77
2022/08/04 09:24:51;;;;;;;2.13;0.30;;;27.50;43.90;;;;;;4949452;28;20034;-78
2022/08/04 09:27:51;;;;;;;1.52;0.30;;;26.80;47.20;;;;;;4948819;28;20036;-78
2022/08/04 09:30:35;;;;;;;2.45;0.65;;;26.60;46.40;;;;;;4945669;28;20036;-78
2022/08/04 09:33:19;;;;;;;1.08;0.30;;;26.60;46.60;;;;;;4951497;28;20034;-77
2022/08/04 09:36:01;;;;;;;2.17;0.35;;;27.00;45.60;;;;;;4982412;28;20390;-78
2022/08/04 09:38:46;;;;;;;0.68;0.38;;;28.30;42.40;;;;;;4947932;28;20034;-78
2022/08/04 09:41:39;;;;;;;0.82;0.38;;;29.10;39.60;;;;;;4978290;23;20062;-78
2022/08/04 09:44:24;;;;;;;0.90;0.15;;;29.90;38.90;;;;;;4967435;28;20075;-79
2022/08/04 09:47:09;;;;;;;0.93;0.10;;;30.90;37.50;;;;;;4967350;28;20019;-79
2022/08/04 09:49:53;;;;;;;1.08;0.30;;;31.40;34.60;;;;;;4961852;28;20073;-79
2022/08/04 09:52:47;;;;;;;1.75;0.35;;;32.00;36.20;;;;;;4962027;28;20133;-78
2022/08/04 09:55:48;;;;;;;1.80;0.30;;;31.80;35.10;;;;;;4963461;28;20027;-79
2022/08/04 09:58:13;;;;;;;0.67;0.37;;;30.50;35.70;;;;;;5017740;28;20512;-79
2022/08/04 10:00:45;;;;;;;0.28;0.20;;;29.00;36.90;;;;;;4968008;28;20027;-79
2022/08/04 10:03:13;;;;;;;1.40;0.28;;;28.90;39.10;;;;;;4968572;28;20459;-81
2022/08/04 10:06:31;;;;;;;2.10;0.20;;;30.20;39.00;;;;;;4968783;28;20184;-80
2022/08/04 10:09:43;;;;;;;3.60;0.20;;;32.10;36.00;;;;;;4977687;28;20035;-80
2022/08/04 10:12:56;;;;;;;1.73;0.20;;;33.60;31.40;;;;;;5026436;28;20124;-79
2022/08/04 10:15:32;;;;;;;1.35;0.30;;;33.50;30.70;;;;;;4975868;28;20500;-80
2022/08/04 10:18:38;;;;;;;0.38;0.20;;;32.40;32.40;;;;;;4962868;28;20027;-80
2022/08/04 10:21:17;;;;;;;0.30;0.00;;;33.10;30.50;;;;;;4965918;28;20026;-80
2022/08/04 10:24:14;;;;;;;2.33;0.20;;;33.80;30.80;;;;;;4968766;28;20035;-80
2022/08/04 10:26:59;;;;;;;1.27;0.40;;;33.90;29.70;;;;;;4970011;28;20027;-79
2022/08/04 10:29:39;;;;;;;1.38;0.73;;;34.20;30.20;;;;;;4971584;28;20084;-79
2022/08/04 10:32:28;;;;;;;1.73;0.20;;;34.50;27.90;;;;;;4971764;28;20046;-80
2022/08/04 10:35:23;;;;;;;0.70;0.20;;;34.30;28.70;;;;;;4970424;28;20027;-79
2022/08/04 10:38:32;;;;;;;1.02;0.35;;;35.20;27.40;;;;;;4962505;28;20030;-80
2022/08/04 10:41:18;;;;;;;0.95;0.28;;;35.30;28.90;;;;;;4938099;28;20487;-79
2022/08/04 10:43:56;;;;;;;0.85;0.30;;;34.00;27.80;;;;;;4971122;28;20031;-80
2022/08/04 10:46:30;;;;;;;0.47;0.20;;;32.50;29.40;;;;;;4968549;28;20028;-79
2022/08/04 10:48:59;;;;;;;1.27;0.30;;;32.80;31.30;;;;;;4965920;28;20027;-80
2022/08/04 10:51:31;;;;;;;1.75;0.22;;;33.90;28.90;;;;;;4964293;28;20031;-80
2022/08/04 10:54:01;;;;;;;2.45;0.50;;;35.20;27.70;;;;;;4971296;28;20494;-80
2022/08/04 10:56:53;;;;;;;1.17;0.38;;;35.80;26.90;;;;;;4971642;28;20387;-81
2022/08/04 10:59:45;;;;;;;0.35;0.13;;;36.40;27.10;;;;;;4970843;28;21119;-80
2022/08/04 11:02:26;;;;;;;1.10;0.08;;;37.10;26.60;;;;;;4969984;28;20027;-80
2022/08/04 11:05:27;;;;;;;1.10;0.20;;;37.20;27.40;;;;;;4970217;28;20023;-80
2022/08/04 11:08:00;;;;;;;0.15;0.15;;;37.00;26.40;;;;;;4965591;28;20019;-79
2022/08/04 11:10:31;;;;;;;0.60;0.30;;;35.90;26.50;;;;;;4970901;28;20069;-79
2022/08/04 11:13:03;;;;;;;0.38;0.30;;;35.00;27.50;;;;;;4971138;28;20114;-78
2022/08/04 11:15:54;;;;;;;2.17;0.40;;;33.60;28.30;;;;;;4971327;28;20042;-80
2022/08/04 11:18:32;;;;;;;1.23;0.30;;;34.20;27.80;;;;;;4971058;28;20405;-79
2022/08/04 11:21:15;;;;;;;0.65;0.40;;;34.30;27.80;;;;;;4970893;28;20035;-79
2022/08/04 11:23:55;;;;;;;1.55;0.40;;;34.30;27.90;;;;;;4965488;28;20387;-80
2022/08/04 11:26:31;;;;;;;1.57;0.83;;;35.40;27.00;;;;;;4960392;28;20030;-79
2022/08/04 11:29:07;;;;;;;1.17;0.38;;;36.00;26.80;;;;;;4963644;28;20749;-81
2022/08/04 11:31:42;;;;;;;1.27;0.20;;;37.70;26.00;;;;;;4963072;28;20049;-84
2022/08/04 11:34:21;;;;;;;1.38;0.40;;;39.20;25.00;;;;;;4959812;28;20019;-80
2022/08/04 11:37:10;;;;;;;1.42;0.30;;;38.90;24.00;;;;;;4961191;28;20037;-80
2022/08/04 11:39:43;;;;;;;2.47;0.40;;;38.80;24.30;;;;;;4960459;28;20037;-80
2022/08/04 11:42:17;;;;;;;0.55;0.30;;;39.70;24.70;;;;;;4975161;23;20590;-75
2022/08/04 11:44:47;;;;;;;1.48;0.30;;;39.90;22.10;;;;;;4951807;28;20034;-75
2022/08/04 11:47:29;;;;;;;0.47;0.20;;;38.90;24.00;;;;;;4951417;28;20032;-75
2022/08/04 11:50:01;;;;;;;0.88;0.20;;;36.10;24.40;;;;;;4953777;28;20027;-75
2022/08/04 11:52:28;;;;;;;0.20;0.20;;;33.90;25.40;;;;;;4948754;28;20027;-75
2022/08/04 11:54:56;;;;;;;1.08;0.20;;;32.80;30.00;;;;;;4941938;28;20396;-75
2022/08/04 11:57:24;;;;;;;1.48;0.50;;;34.20;29.70;;;;;;4950334;28;20024;-74
2022/08/04 11:59:52;;;;;;;4.65;0.60;;;35.90;26.80;;;;;;4949412;28;20062;-75
2022/08/04 12:02:44;;;;;;;1.92;0.40;;;37.60;28.70;;;;;;4940814;28;20027;-75
2022/08/04 12:05:10;;;;;;;3.10;0.50;;;38.80;26.90;;;;;;4976847;28;20097;-74
2022/08/04 12:07:57;;;;;;;2.72;0.50;;;38.70;27.10;;;;;;4946651;28;20502;-75
2022/08/04 12:10:29;;;;;;;2.58;0.30;;;38.10;26.40;;;;;;4949470;28;20023;-75
2022/08/04 12:13:24;;;;;;;3.05;0.52;;;39.30;26.70;;;;;;4947140;28;20036;-74
2022/08/04 12:16:16;;;;;;;0.70;0.40;;;40.90;26.00;;;;;;4961324;28;20039;-74
2022/08/04 12:18:44;;;;;;;1.33;0.40;;;42.20;24.50;;;;;;4959763;28;20027;-74
2022/08/04 12:21:38;;;;;;;2.25;0.40;;;42.00;24.00;;;;;;4953695;28;20084;-74
2022/08/04 12:24:45;;;;;;;4.25;0.60;;;40.70;25.00;;;;;;4955052;28;20035;-74
2022/08/04 12:27:16;;;;;;;4.22;0.55;;;39.50;25.50;;;;;;4945804;28;20032;-74
2022/08/04 12:29:44;;;;;;;1.92;0.47;;;39.20;25.40;;;;;;4945019;28;20050;-73
2022/08/04 12:32:28;;;;;;;0.93;0.40;;;39.00;26.30;;;;;;4955961;28;20039;-74
2022/08/04 12:35:11;;;;;;;1.65;0.50;;;39.90;27.00;;;;;;4954097;28;20404;-74
2022/08/04 12:37:50;;;;;;;1.17;0.40;;;38.70;25.10;;;;;;4950540;28;20073;-74
2022/08/04 12:43:29;;;;;;;;;;;38.80;26.00;;;;;;4987970;28;20061;-77
2022/08/04 12:46:01;;;;;;;3.78;0.45;;;38.10;27.10;;;;;;4980073;28;20411;-78
2022/08/04 12:48:27;;;;;;;3.20;0.57;;;38.30;27.10;;;;;;4992664;28;20026;-77
2022/08/04 12:50:55;;;;;;;2.58;0.50;;;38.30;27.70;;;;;;4991760;28;20031;-78
2022/08/04 12:53:28;;;;;;;3.20;0.57;;;38.60;28.70;;;;;;4993553;28;20066;-77
2022/08/04 12:55:56;;;;;;;1.25;0.32;;;39.50;26.60;;;;;;4983621;28;20018;-78
2022/08/04 12:58:28;;;;;;;2.45;0.50;;;40.50;26.30;;;;;;5002488;28;20025;-78
2022/08/04 13:01:02;;;;;;;5.90;0.55;;;40.50;25.90;;;;;;4988983;28;20107;-78
2022/08/04 13:03:36;;;;;;;2.00;0.30;;;39.60;25.90;;;;;;4988739;28;20064;-77
2022/08/04 13:06:03;;;;;;;2.70;0.43;;;38.70;26.60;;;;;;4988871;28;20026;-80
2022/08/04 13:08:34;;;;;;;1.25;0.43;;;38.20;28.00;;;;;;4989910;28;20022;-79
2022/08/04 13:11:01;;;;;;;3.97;0.70;;;38.20;27.20;;;;;;4989134;28;20022;-82
2022/08/04 13:13:32;;;;;;;0.82;0.35;;;38.70;27.70;;;;;;5040118;28;20029;-83
2022/08/04 13:16:07;;;;;;;1.45;0.50;;;39.30;27.00;;;;;;5019909;28;20030;-81
2022/08/04 13:18:44;;;;;;;1.02;0.40;;;39.00;27.40;;;;;;4998219;28;20072;-83
2022/08/04 13:21:21;;;;;;;3.13;0.90;;;39.20;26.30;;;;;;4989118;28;20019;-80
2022/08/04 13:24:05;;;;;;;2.92;0.50;;;39.30;27.80;;;;;;4988834;28;20033;-80
2022/08/04 13:26:33;;;;;;;1.52;0.68;;;39.00;26.50;;;;;;4988000;28;20027;-80
2022/08/04 13:29:01;;;;;;;1.65;0.40;;;39.10;26.80;;;;;;4988666;28;20060;-80
2022/08/04 13:31:29;;;;;;;2.20;0.57;;;38.70;27.10;;;;;;5051157;28;20109;-79
2022/08/04 13:34:04;;;;;;;3.08;0.60;;;38.00;27.50;;;;;;4989439;28;20026;-80
2022/08/04 13:36:31;;;;;;;2.17;0.47;;;38.80;27.40;;;;;;4989062;28;20015;-79
2022/08/04 13:39:01;;;;;;;1.58;0.40;;;38.60;27.50;;;;;;4989452;28;20028;-81
2022/08/04 13:41:28;;;;;;;1.88;0.32;;;38.50;27.10;;;;;;4988933;28;20022;-81
2022/08/04 13:43:57;;;;;;;2.45;0.85;;;38.50;28.60;;;;;;5004393;28;20048;-80